sensor_id;sensor_type;location;lat;lon;timestamp;pressure;altitude;pressure_sealevel;temperature;humidity
70407;BME280;57821;52.202;0.154;2023-02-23T00:01:18;101515.34;;;5.67;100.00
70407;BME280;57821;52.202;0.154;2023-02-23T00:03:45;101509.44;;;5.71;100.00
70407;BME280;57821;52.202;0.154;2023-02-23T00:06:12;101515.59;;;5.76;100.00
70407;BME280;57821;52.202;0.154;2023-02-23T00:08:39;101509.69;;;5.81;100.00
70407;BME280;57821;52.202;0.154;2023-02-23T00:11:09;101502.97;;;5.86;100.00
70407;BME280;57821;52.202;0.154;2023-02-23T00:13:36;101503.13;;;5.90;100.00
70407;BME280;57821;52.202;0.154;2023-02-23T00:16:09;101505.81;;;5.95;100.00
70407;BME280;57821;52.202;0.154;2023-02-23T00:18:35;101512.81;;;5.99;100.00
70407;BME280;57821;52.202;0.154;2023-02-23T00:21:02;101518.91;;;6.02;100.00
70407;BME280;57821;52.202;0.154;2023-02-23T00:23:29;101518.13;;;6.05;100.00
70407;BME280;57821;52.202;0.154;2023-02-23T00:25:55;101519.94;;;6.09;100.00
70407;BME280;57821;52.202;0.154;2023-02-23T00:28:22;101514.84;;;6.12;100.00
70407;BME280;57821;52.202;0.154;2023-02-23T00:30:48;101522.69;;;6.15;100.00
70407;BME280;57821;52.202;0.154;2023-02-23T00:33:15;101518.44;;;6.17;100.00
70407;BME280;57821;52.202;0.154;2023-02-23T00:35:42;101509.03;;;6.19;100.00
70407;BME280;57821;52.202;0.154;2023-02-23T00:38:08;101511.63;;;6.19;100.00
70407;BME280;57821;52.202;0.154;2023-02-23T00:40:38;101511.63;;;6.19;100.00
70407;BME280;57821;52.202;0.154;2023-02-23T00:43:05;101516.78;;;6.19;100.00
70407;BME280;57821;52.202;0.154;2023-02-23T00:45:31;101521.09;;;6.20;100.00
70407;BME280;57821;52.202;0.154;2023-02-23T00:47:58;101525.41;;;6.21;100.00
70407;BME280;57821;52.202;0.154;2023-02-23T00:50:24;101525.38;;;6.19;100.00
70407;BME280;57821;52.202;0.154;2023-02-23T00:52:51;101528.94;;;6.25;100.00
70407;BME280;57821;52.202;0.154;2023-02-23T00:55:17;101527.22;;;6.25;100.00
70407;BME280;57821;52.202;0.154;2023-02-23T00:57:44;101529.84;;;6.27;100.00
70407;BME280;57821;52.202;0.154;2023-02-23T01:00:11;101527.31;;;6.28;100.00
70407;BME280;57821;52.202;0.154;2023-02-23T01:02:38;101535.06;;;6.28;100.00
70407;BME280;57821;52.202;0.154;2023-02-23T01:05:04;101531.59;;;6.28;100.00
70407;BME280;57821;52.202;0.154;2023-02-23T01:07:31;101529.91;;;6.28;100.00
70407;BME280;57821;52.202;0.154;2023-02-23T01:09:58;101539.34;;;6.29;100.00
70407;BME280;57821;52.202;0.154;2023-02-23T01:12:24;101529.91;;;6.30;100.00
70407;BME280;57821;52.202;0.154;2023-02-23T01:14:51;101541.84;;;6.26;100.00
70407;BME280;57821;52.202;0.154;2023-02-23T01:17:17;101541.03;;;6.27;100.00
70407;BME280;57821;52.202;0.154;2023-02-23T01:19:43;101537.53;;;6.25;100.00
70407;BME280;57821;52.202;0.154;2023-02-23T01:22:10;101542.63;;;6.22;100.00
70407;BME280;57821;52.202;0.154;2023-02-23T01:24:38;101549.47;;;6.22;100.00
70407;BME280;57821;52.202;0.154;2023-02-23T01:27:04;101552.81;;;6.19;100.00
70407;BME280;57821;52.202;0.154;2023-02-23T01:29:32;101557.97;;;6.19;100.00
70407;BME280;57821;52.202;0.154;2023-02-23T01:31:59;101559.66;;;6.18;100.00
70407;BME280;57821;52.202;0.154;2023-02-23T01:34:28;101557.09;;;6.18;100.00
70407;BME280;57821;52.202;0.154;2023-02-23T01:36:55;101554.50;;;6.17;100.00
70407;BME280;57821;52.202;0.154;2023-02-23T01:39:22;101562.94;;;6.13;100.00
70407;BME280;57821;52.202;0.154;2023-02-23T01:41:49;101556.97;;;6.14;100.00
70407;BME280;57821;52.202;0.154;2023-02-23T01:46:45;101576.66;;;6.12;100.00
70407;BME280;57821;52.202;0.154;2023-02-23T01:49:20;101576.66;;;6.12;100.00
70407;BME280;57821;52.202;0.154;2023-02-23T01:52:03;101573.19;;;6.10;100.00
70407;BME280;57821;52.202;0.154;2023-02-23T01:54:36;101570.50;;;6.07;100.00
70407;BME280;57821;52.202;0.154;2023-02-23T01:57:05;101560.97;;;6.03;100.00
70407;BME280;57821;52.202;0.154;2023-02-23T01:59:47;101573.09;;;6.07;100.00
70407;BME280;57821;52.202;0.154;2023-02-23T02:02:17;101567.16;;;6.09;100.00
70407;BME280;57821;52.202;0.154;2023-02-23T02:04:46;101569.63;;;6.06;100.00
70407;BME280;57821;52.202;0.154;2023-02-23T02:07:16;101571.34;;;6.06;100.00
70407;BME280;57821;52.202;0.154;2023-02-23T02:09:47;101565.34;;;6.05;100.00
70407;BME280;57821;52.202;0.154;2023-02-23T02:12:14;101566.16;;;6.04;100.00
70407;BME280;57821;52.202;0.154;2023-02-23T02:14:42;101562.78;;;6.05;100.00
70407;BME280;57821;52.202;0.154;2023-02-23T02:17:33;101560.03;;;6.01;100.00
70407;BME280;57821;52.202;0.154;2023-02-23T02:20:30;101574.75;;;6.05;100.00
70407;BME280;57821;52.202;0.154;2023-02-23T02:23:26;101570.50;;;6.05;100.00
70407;BME280;57821;52.202;0.154;2023-02-23T02:39:31;101559.31;;;6.05;100.00
70407;BME280;57821;52.202;0.154;2023-02-23T02:47:45;101570.56;;;6.08;100.00
70407;BME280;57821;52.202;0.154;2023-02-23T02:50:34;101566.28;;;6.09;100.00
70407;BME280;57821;52.202;0.154;2023-02-23T02:53:07;101568.81;;;6.07;100.00
70407;BME280;57821;52.202;0.154;2023-02-23T02:55:37;101571.44;;;6.09;100.00
70407;BME280;57821;52.202;0.154;2023-02-23T02:58:06;101564.47;;;6.05;100.00
70407;BME280;57821;52.202;0.154;2023-02-23T03:00:37;101572.38;;;6.11;100.00
70407;BME280;57821;52.202;0.154;2023-02-23T03:03:04;101568.91;;;6.10;100.00
70407;BME280;57821;52.202;0.154;2023-02-23T03:05:47;101573.19;;;6.10;100.00
70407;BME280;57821;52.202;0.154;2023-02-23T03:11:13;101563.75;;;6.10;100.00
70407;BME280;57821;52.202;0.154;2023-02-23T03:19:10;101567.94;;;6.07;100.00
70407;BME280;57821;52.202;0.154;2023-02-23T03:21:59;101569.63;;;6.05;100.00
70407;BME280;57821;52.202;0.154;2023-02-23T03:32:49;101579.81;;;6.02;100.00
70407;BME280;57821;52.202;0.154;2023-02-23T03:35:27;101574.66;;;6.02;100.00
70407;BME280;57821;52.202;0.154;2023-02-23T03:38:08;101580.69;;;6.02;100.00
70407;BME280;57821;52.202;0.154;2023-02-23T03:40:38;101574.59;;;5.99;100.00
70407;BME280;57821;52.202;0.154;2023-02-23T03:43:09;101577.19;;;6.00;100.00
70407;BME280;57821;52.202;0.154;2023-02-23T03:45:38;101583.38;;;6.05;100.00
70407;BME280;57821;52.202;0.154;2023-02-23T03:48:09;101589.34;;;6.06;100.00
70407;BME280;57821;52.202;0.154;2023-02-23T03:50:57;101591.94;;;6.06;100.00
70407;BME280;57821;52.202;0.154;2023-02-23T03:53:40;101581.56;;;6.03;100.00
70407;BME280;57821;52.202;0.154;2023-02-23T03:56:08;101590.38;;;6.11;100.00
70407;BME280;57821;52.202;0.154;2023-02-23T03:58:39;101588.63;;;6.10;100.00
70407;BME280;57821;52.202;0.154;2023-02-23T04:01:08;101598.13;;;6.12;100.00
70407;BME280;57821;52.202;0.154;2023-02-23T04:03:39;101586.78;;;6.06;100.00
70407;BME280;57821;52.202;0.154;2023-02-23T04:06:10;101583.31;;;6.04;100.00
70407;BME280;57821;52.202;0.154;2023-02-23T04:08:38;101596.31;;;6.08;100.00
70407;BME280;57821;52.202;0.154;2023-02-23T04:14:01;101593.44;;;5.98;100.00
70407;BME280;57821;52.202;0.154;2023-02-23T04:16:30;101593.44;;;5.98;100.00
70407;BME280;57821;52.202;0.154;2023-02-23T04:18:58;101609.94;;;6.04;100.00
70407;BME280;57821;52.202;0.154;2023-02-23T04:21:24;101609.94;;;6.04;100.00
70407;BME280;57821;52.202;0.154;2023-02-23T04:23:51;101609.13;;;6.07;100.00
70407;BME280;57821;52.202;0.154;2023-02-23T04:26:17;101603.09;;;6.06;100.00
70407;BME280;57821;52.202;0.154;2023-02-23T04:28:44;101617.78;;;6.09;100.00
70407;BME280;57821;52.202;0.154;2023-02-23T04:31:11;101615.22;;;6.09;100.00
70407;BME280;57821;52.202;0.154;2023-02-23T04:33:37;101622.94;;;6.09;100.00
70407;BME280;57821;52.202;0.154;2023-02-23T04:36:04;101622.88;;;6.07;100.00
70407;BME280;57821;52.202;0.154;2023-02-23T04:38:30;101620.31;;;6.07;100.00
70407;BME280;57821;52.202;0.154;2023-02-23T04:40:57;101619.47;;;6.08;100.00
70407;BME280;57821;52.202;0.154;2023-02-23T04:43:23;101625.44;;;6.07;100.00
70407;BME280;57821;52.202;0.154;2023-02-23T04:45:50;101622.81;;;6.06;100.00
70407;BME280;57821;52.202;0.154;2023-02-23T04:48:17;101631.47;;;6.08;100.00
70407;BME280;57821;52.202;0.154;2023-02-23T04:50:43;101624.63;;;6.08;100.00
70407;BME280;57821;52.202;0.154;2023-02-23T04:53:10;101635.84;;;6.10;100.00
70407;BME280;57821;52.202;0.154;2023-02-23T04:55:36;101622.88;;;6.07;100.00
70407;BME280;57821;52.202;0.154;2023-02-23T04:58:03;101641.03;;;6.12;100.00
70407;BME280;57821;52.202;0.154;2023-02-23T05:00:29;101635.88;;;6.12;100.00
70407;BME280;57821;52.202;0.154;2023-02-23T05:02:56;101631.59;;;6.12;100.00
70407;BME280;57821;52.202;0.154;2023-02-23T05:05:23;101641.88;;;6.11;100.00
70407;BME280;57821;52.202;0.154;2023-02-23T05:07:50;101630.72;;;6.10;100.00
70407;BME280;57821;52.202;0.154;2023-02-23T05:10:16;101630.66;;;6.09;100.00
70407;BME280;57821;52.202;0.154;2023-02-23T05:12:43;101634.94;;;6.08;100.00
70407;BME280;57821;52.202;0.154;2023-02-23T05:15:09;101626.28;;;6.06;100.00
70407;BME280;57821;52.202;0.154;2023-02-23T05:17:38;101630.47;;;6.03;100.00
70407;BME280;57821;52.202;0.154;2023-02-23T05:20:05;101630.56;;;6.06;100.00
70407;BME280;57821;52.202;0.154;2023-02-23T05:22:32;101632.28;;;6.05;100.00
70407;BME280;57821;52.202;0.154;2023-02-23T05:24:59;101635.69;;;6.04;100.00
70407;BME280;57821;52.202;0.154;2023-02-23T05:27:25;101640.78;;;6.03;100.00
70407;BME280;57821;52.202;0.154;2023-02-23T05:29:52;101644.19;;;6.02;100.00
70407;BME280;57821;52.202;0.154;2023-02-23T05:32:18;101657.00;;;6.00;100.00
70407;BME280;57821;52.202;0.154;2023-02-23T05:34:45;101656.97;;;5.99;100.00
70407;BME280;57821;52.202;0.154;2023-02-23T05:37:11;101658.63;;;5.97;100.00
70407;BME280;57821;52.202;0.154;2023-02-23T05:39:38;101661.19;;;5.97;100.00
70407;BME280;57821;52.202;0.154;2023-02-23T05:42:05;101656.81;;;5.94;100.00
70407;BME280;57821;52.202;0.154;2023-02-23T05:44:31;101674.06;;;5.97;100.00
70407;BME280;57821;52.202;0.154;2023-02-23T05:46:58;101671.53;;;5.98;100.00
70407;BME280;57821;52.202;0.154;2023-02-23T05:49:24;101676.69;;;5.98;100.00
70407;BME280;57821;52.202;0.154;2023-02-23T05:51:51;101676.69;;;5.98;100.00
70407;BME280;57821;52.202;0.154;2023-02-23T05:54:17;101680.16;;;6.00;100.00
70407;BME280;57821;52.202;0.154;2023-02-23T05:56:44;101682.72;;;5.99;100.00
70407;BME280;57821;52.202;0.154;2023-02-23T05:59:10;101681.03;;;6.01;100.00
70407;BME280;57821;52.202;0.154;2023-02-23T06:01:37;101677.59;;;6.00;100.00
70407;BME280;57821;52.202;0.154;2023-02-23T06:04:04;101678.47;;;6.01;100.00
70407;BME280;57821;52.202;0.154;2023-02-23T06:06:31;101687.03;;;6.00;100.00
70407;BME280;57821;52.202;0.154;2023-02-23T06:08:58;101696.47;;;6.01;100.00
70407;BME280;57821;52.202;0.154;2023-02-23T06:11:25;101698.16;;;5.99;100.00
70407;BME280;57821;52.202;0.154;2023-02-23T06:13:51;101711.13;;;6.02;100.00
70407;BME280;57821;52.202;0.154;2023-02-23T06:16:18;101703.38;;;6.02;100.00
70407;BME280;57821;52.202;0.154;2023-02-23T06:18:44;101705.97;;;6.02;100.00
70407;BME280;57821;52.202;0.154;2023-02-23T06:21:11;101711.94;;;6.01;100.00
70407;BME280;57821;52.202;0.154;2023-02-23T06:23:37;101710.22;;;6.00;100.00
70407;BME280;57821;52.202;0.154;2023-02-23T06:26:04;101714.50;;;5.99;100.00
70407;BME280;57821;52.202;0.154;2023-02-23T06:28:30;101718.84;;;6.02;100.00
70407;BME280;57821;52.202;0.154;2023-02-23T06:30:57;101725.75;;;6.03;100.00
70407;BME280;57821;52.202;0.154;2023-02-23T06:33:24;101725.75;;;6.03;100.00
70407;BME280;57821;52.202;0.154;2023-02-23T06:35:52;101725.75;;;6.03;100.00
70407;BME280;57821;52.202;0.154;2023-02-23T06:38:19;101729.25;;;6.05;100.00
70407;BME280;57821;52.202;0.154;2023-02-23T06:40:46;101725.75;;;6.03;100.00
70407;BME280;57821;52.202;0.154;2023-02-23T06:43:12;101736.84;;;6.02;100.00
70407;BME280;57821;52.202;0.154;2023-02-23T06:45:39;101749.72;;;6.02;100.00
70407;BME280;57821;52.202;0.154;2023-02-23T06:48:05;101750.66;;;6.04;100.00
70407;BME280;57821;52.202;0.154;2023-02-23T06:50:32;101754.94;;;6.03;100.00
70407;BME280;57821;52.202;0.154;2023-02-23T06:52:58;101761.03;;;6.07;100.00
70407;BME280;57821;52.202;0.154;2023-02-23T06:55:25;101769.63;;;6.07;100.00
70407;BME280;57821;52.202;0.154;2023-02-23T06:57:52;101767.88;;;6.06;100.00
70407;BME280;57821;52.202;0.154;2023-02-23T07:00:19;101768.75;;;6.07;100.00
70407;BME280;57821;52.202;0.154;2023-02-23T07:02:46;101781.69;;;6.08;100.00
70407;BME280;57821;52.202;0.154;2023-02-23T07:05:13;101787.72;;;6.09;100.00
70407;BME280;57821;52.202;0.154;2023-02-23T07:07:39;101797.91;;;6.06;100.00
70407;BME280;57821;52.202;0.154;2023-02-23T07:10:06;101797.06;;;6.05;100.00
70407;BME280;57821;52.202;0.154;2023-02-23T07:12:32;101800.47;;;6.06;100.00
70407;BME280;57821;52.202;0.154;2023-02-23T07:14:59;101804.81;;;6.07;100.00
70407;BME280;57821;52.202;0.154;2023-02-23T07:17:25;101806.56;;;6.08;100.00
70407;BME280;57821;52.202;0.154;2023-02-23T07:19:52;101805.75;;;6.09;100.00
70407;BME280;57821;52.202;0.154;2023-02-23T07:22:19;101816.88;;;6.08;100.00
70407;BME280;57821;52.202;0.154;2023-02-23T07:24:45;101821.19;;;6.09;100.00
70407;BME280;57821;52.202;0.154;2023-02-23T07:27:11;101815.03;;;6.04;100.00
70407;BME280;57821;52.202;0.154;2023-02-23T07:29:38;101828.16;;;6.11;100.00
70407;BME280;57821;52.202;0.154;2023-02-23T07:32:04;101835.88;;;6.11;100.00
70407;BME280;57821;52.202;0.154;2023-02-23T07:34:31;101840.16;;;6.12;100.00
70407;BME280;57821;52.202;0.154;2023-02-23T07:36:58;101854.84;;;6.15;100.00
70407;BME280;57821;52.202;0.154;2023-02-23T07:39:24;101866.09;;;6.17;100.00
70407;BME280;57821;52.202;0.154;2023-02-23T07:41:51;101871.19;;;6.15;100.00
70407;BME280;57821;52.202;0.154;2023-02-23T07:44:18;101878.13;;;6.18;100.00
70407;BME280;57821;52.202;0.154;2023-02-23T07:46:45;101880.69;;;6.18;100.00
70407;BME280;57821;52.202;0.154;2023-02-23T07:49:11;101879.00;;;6.18;100.00
70407;BME280;57821;52.202;0.154;2023-02-23T07:51:38;101890.19;;;6.19;100.00
70407;BME280;57821;52.202;0.154;2023-02-23T07:54:05;101885.06;;;6.21;100.00
70407;BME280;57821;52.202;0.154;2023-02-23T07:56:32;101889.34;;;6.20;100.00
70407;BME280;57821;52.202;0.154;2023-02-23T07:58:58;101900.53;;;6.21;100.00
70407;BME280;57821;52.202;0.154;2023-02-23T08:01:25;101908.34;;;6.24;100.00
70407;BME280;57821;52.202;0.154;2023-02-23T08:03:52;101910.09;;;6.25;100.00
70407;BME280;57821;52.202;0.154;2023-02-23T08:06:18;101911.03;;;6.27;100.00
70407;BME280;57821;52.202;0.154;2023-02-23T08:08:45;101905.94;;;6.28;100.00
70407;BME280;57821;52.202;0.154;2023-02-23T08:11:11;101911.16;;;6.31;100.00
70407;BME280;57821;52.202;0.154;2023-02-23T08:13:39;101912.09;;;6.33;100.00
70407;BME280;57821;52.202;0.154;2023-02-23T08:16:05;101903.56;;;6.34;100.00
70407;BME280;57821;52.202;0.154;2023-02-23T08:18:32;101917.41;;;6.38;100.00
70407;BME280;57821;52.202;0.154;2023-02-23T08:21:00;101927.78;;;6.41;100.00
70407;BME280;57821;52.202;0.154;2023-02-23T08:23:32;101926.19;;;6.44;100.00
70407;BME280;57821;52.202;0.154;2023-02-23T08:26:00;101937.47;;;6.48;100.00
70407;BME280;57821;52.202;0.154;2023-02-23T08:28:28;101932.44;;;6.51;100.00
70407;BME280;57821;52.202;0.154;2023-02-23T08:30:55;101940.19;;;6.52;100.00
70407;BME280;57821;52.202;0.154;2023-02-23T08:33:21;101941.94;;;6.53;100.00
70407;BME280;57821;52.202;0.154;2023-02-23T08:35:48;101942.88;;;6.55;100.00
70407;BME280;57821;52.202;0.154;2023-02-23T08:38:14;101942.94;;;6.57;100.00
70407;BME280;57821;52.202;0.154;2023-02-23T08:40:41;101944.63;;;6.56;100.00
70407;BME280;57821;52.202;0.154;2023-02-23T08:43:08;101955.84;;;6.58;100.00
70407;BME280;57821;52.202;0.154;2023-02-23T08:45:36;101957.66;;;6.61;100.00
70407;BME280;57821;52.202;0.154;2023-02-23T08:48:03;101958.66;;;6.66;100.00
70407;BME280;57821;52.202;0.154;2023-02-23T08:50:29;101967.38;;;6.70;100.00
70407;BME280;57821;52.202;0.154;2023-02-23T08:52:56;101967.47;;;6.73;100.00
70407;BME280;57821;52.202;0.154;2023-02-23T08:55:22;101974.44;;;6.75;100.00
70407;BME280;57821;52.202;0.154;2023-02-23T08:57:49;101977.13;;;6.80;100.00
70407;BME280;57821;52.202;0.154;2023-02-23T09:00:16;101974.66;;;6.83;100.00
70407;BME280;57821;52.202;0.154;2023-02-23T09:02:44;101970.47;;;6.86;100.00
70407;BME280;57821;52.202;0.154;2023-02-23T09:05:11;101972.25;;;6.89;100.00
70407;BME280;57821;52.202;0.154;2023-02-23T09:07:39;101967.09;;;6.89;100.00
70407;BME280;57821;52.202;0.154;2023-02-23T09:10:06;101973.44;;;6.98;100.00
70407;BME280;57821;52.202;0.154;2023-02-23T09:12:33;101982.13;;;7.02;100.00
70407;BME280;57821;52.202;0.154;2023-02-23T09:14:59;101970.97;;;7.03;100.00
70407;BME280;57821;52.202;0.154;2023-02-23T09:17:26;101983.13;;;7.07;100.00
70407;BME280;57821;52.202;0.154;2023-02-23T09:19:53;101984.94;;;7.10;100.00
70407;BME280;57821;52.202;0.154;2023-02-23T09:22:19;101977.28;;;7.13;100.00
70407;BME280;57821;52.202;0.154;2023-02-23T09:24:46;101995.44;;;7.16;100.00
70407;BME280;57821;52.202;0.154;2023-02-23T09:27:12;102000.72;;;7.20;100.00
70407;BME280;57821;52.202;0.154;2023-02-23T09:29:39;102011.13;;;7.23;100.00
70407;BME280;57821;52.202;0.154;2023-02-23T09:32:06;102004.31;;;7.25;100.00
70407;BME280;57821;52.202;0.154;2023-02-23T09:34:33;102002.84;;;7.33;100.00
70407;BME280;57821;52.202;0.154;2023-02-23T09:37:03;102006.38;;;7.37;100.00
70407;BME280;57821;52.202;0.154;2023-02-23T09:39:30;101997.94;;;7.42;100.00
70407;BME280;57821;52.202;0.154;2023-02-23T09:50:33;101985.56;;;7.61;100.00
70407;BME280;57821;52.202;0.154;2023-02-23T09:53:02;101997.06;;;7.72;100.00
70407;BME280;57821;52.202;0.154;2023-02-23T09:55:30;102006.66;;;7.77;100.00
70407;BME280;57821;52.202;0.154;2023-02-23T09:58:05;102003.31;;;7.81;100.00
70407;BME280;57821;52.202;0.154;2023-02-23T10:00:39;102013.03;;;7.90;100.00
70407;BME280;57821;52.202;0.154;2023-02-23T10:03:25;102007.06;;;7.93;100.00
70407;BME280;57821;52.202;0.154;2023-02-23T10:05:58;102007.16;;;7.96;100.00
70407;BME280;57821;52.202;0.154;2023-02-23T10:13:55;102004.69;;;8.00;100.00
70407;BME280;57821;52.202;0.154;2023-02-23T10:22:06;102024.16;;;7.88;100.00
70407;BME280;57821;52.202;0.154;2023-02-23T10:24:54;102019.53;;;7.76;100.00
70407;BME280;57821;52.202;0.154;2023-02-23T10:27:28;102031.56;;;7.75;100.00
70407;BME280;57821;52.202;0.154;2023-02-23T10:29:59;102026.44;;;7.77;100.00
70407;BME280;57821;52.202;0.154;2023-02-23T10:32:48;102026.38;;;7.74;100.00
70407;BME280;57821;52.202;0.154;2023-02-23T10:35:19;102032.00;;;7.91;100.00
70407;BME280;57821;52.202;0.154;2023-02-23T10:37:47;102032.63;;;8.13;100.00
70407;BME280;57821;52.202;0.154;2023-02-23T10:40:17;102017.69;;;8.35;100.00
70407;BME280;57821;52.202;0.154;2023-02-23T10:42:44;102033.84;;;8.60;100.00
70407;BME280;57821;52.202;0.154;2023-02-23T10:45:16;102042.22;;;8.85;100.00
70407;BME280;57821;52.202;0.154;2023-02-23T10:47:44;102041.88;;;9.07;100.00
70407;BME280;57821;52.202;0.154;2023-02-23T10:50:12;102038.69;;;9.19;100.00
70407;BME280;57821;52.202;0.154;2023-02-23T10:52:42;102044.13;;;9.31;100.00
70407;BME280;57821;52.202;0.154;2023-02-23T10:55:28;102037.50;;;9.45;100.00
70407;BME280;57821;52.202;0.154;2023-02-23T10:58:16;102036.28;;;9.68;100.00
70407;BME280;57821;52.202;0.154;2023-02-23T11:00:56;102020.97;;;9.80;100.00
70407;BME280;57821;52.202;0.154;2023-02-23T11:03:29;102028.91;;;9.88;100.00
70407;BME280;57821;52.202;0.154;2023-02-23T11:05:58;102043.56;;;9.87;100.00
70407;BME280;57821;52.202;0.154;2023-02-23T11:08:31;102051.94;;;9.74;100.00
70407;BME280;57821;52.202;0.154;2023-02-23T11:11:40;102058.63;;;9.63;100.00
70407;BME280;57821;52.202;0.154;2023-02-23T11:14:14;102060.06;;;9.49;100.00
70407;BME280;57821;52.202;0.154;2023-02-23T11:16:41;102063.22;;;9.36;100.00
70407;BME280;57821;52.202;0.154;2023-02-23T11:19:20;102057.97;;;9.33;100.00
70407;BME280;57821;52.202;0.154;2023-02-23T11:21:51;102058.78;;;9.32;100.00
70407;BME280;57821;52.202;0.154;2023-02-23T11:24:23;102048.28;;;9.24;100.00
70407;BME280;57821;52.202;0.154;2023-02-23T11:26:53;102045.66;;;9.23;100.00
70407;BME280;57821;52.202;0.154;2023-02-23T11:31:51;102050.78;;;9.21;100.00
70407;BME280;57821;52.202;0.154;2023-02-23T11:34:26;102035.19;;;9.17;100.00
70407;BME280;57821;52.202;0.154;2023-02-23T11:39:54;102050.97;;;9.29;100.00
70407;BME280;57821;52.202;0.154;2023-02-23T11:42:24;102054.66;;;9.40;100.00
70407;BME280;57821;52.202;0.154;2023-02-23T11:45:14;102046.50;;;9.61;100.00
70407;BME280;57821;52.202;0.154;2023-02-23T11:47:47;102044.25;;;9.77;100.00
70407;BME280;57821;52.202;0.154;2023-02-23T11:50:29;102036.56;;;9.82;100.00
70407;BME280;57821;52.202;0.154;2023-02-23T11:55:23;102041.94;;;9.93;100.00
70407;BME280;57821;52.202;0.154;2023-02-23T11:57:50;102033.44;;;10.00;100.00
70407;BME280;57821;52.202;0.154;2023-02-23T12:00:25;102031.97;;;10.14;100.00
70407;BME280;57821;52.202;0.154;2023-02-23T12:02:57;102035.66;;;10.25;100.00
70407;BME280;57821;52.202;0.154;2023-02-23T12:05:28;102037.59;;;10.35;100.00
70407;BME280;57821;52.202;0.154;2023-02-23T12:08:19;102021.81;;;10.23;100.00
70407;BME280;57821;52.202;0.154;2023-02-23T12:10:54;102032.06;;;10.17;100.00
70407;BME280;57821;52.202;0.154;2023-02-23T12:13:30;102036.88;;;9.99;100.00
70407;BME280;57821;52.202;0.154;2023-02-23T12:18:44;102034.66;;;9.73;100.00
70407;BME280;57821;52.202;0.154;2023-02-23T12:26:50;102010.97;;;9.55;100.00
70407;BME280;57821;52.202;0.154;2023-02-23T12:29:24;102031.13;;;9.70;100.00
70407;BME280;57821;52.202;0.154;2023-02-23T12:32:08;102035.59;;;9.78;100.00
70407;BME280;57821;52.202;0.154;2023-02-23T12:34:48;102023.53;;;9.79;100.00
70407;BME280;57821;52.202;0.154;2023-02-23T12:37:28;102024.44;;;9.81;100.00
70407;BME280;57821;52.202;0.154;2023-02-23T12:40:18;102039.22;;;9.86;100.00
70407;BME280;57821;52.202;0.154;2023-02-23T12:45:35;102041.53;;;9.73;100.00
70407;BME280;57821;52.202;0.154;2023-02-23T12:50:39;102049.72;;;9.51;100.00
70407;BME280;57821;52.202;0.154;2023-02-23T12:53:30;102051.25;;;9.41;100.00
70407;BME280;57821;52.202;0.154;2023-02-23T12:58:56;102052.66;;;9.27;100.00
70407;BME280;57821;52.202;0.154;2023-02-23T13:01:42;102049.13;;;9.23;100.00
70407;BME280;57821;52.202;0.154;2023-02-23T13:04:21;102047.28;;;9.18;100.00
70407;BME280;57821;52.202;0.154;2023-02-23T13:12:54;102034.34;;;9.18;100.00
70407;BME280;57821;52.202;0.154;2023-02-23T13:15:24;102055.38;;;9.33;100.00
70407;BME280;57821;52.202;0.154;2023-02-23T13:18:17;102056.34;;;9.38;100.00
70407;BME280;57821;52.202;0.154;2023-02-23T13:20:51;102044.31;;;9.40;100.00
70407;BME280;57821;52.202;0.154;2023-02-23T13:26:19;102034.41;;;9.61;100.00
70407;BME280;57821;52.202;0.154;2023-02-23T13:28:56;102025.16;;;9.74;100.00
70407;BME280;57821;52.202;0.154;2023-02-23T13:31:34;102015.91;;;9.86;100.00
70407;BME280;57821;52.202;0.154;2023-02-23T13:34:05;102036.91;;;10.02;100.00
70407;BME280;57821;52.202;0.154;2023-02-23T13:36:33;102037.13;;;10.11;100.00
70407;BME280;57821;52.202;0.154;2023-02-23T13:39:24;102032.84;;;10.14;100.00
70407;BME280;57821;52.202;0.154;2023-02-23T13:45:15;102038.50;;;9.94;100.00
70407;BME280;57821;52.202;0.154;2023-02-23T13:50:45;102044.84;;;9.64;100.00
70407;BME280;57821;52.202;0.154;2023-02-23T13:53:41;102057.53;;;9.52;100.00
70407;BME280;57821;52.202;0.154;2023-02-23T13:56:21;102045.97;;;9.38;100.00
70407;BME280;57821;52.202;0.154;2023-02-23T14:01:26;102060.34;;;9.24;100.00
70407;BME280;57821;52.202;0.154;2023-02-23T14:03:56;102058.47;;;9.17;100.00
70407;BME280;57821;52.202;0.154;2023-02-23T14:06:26;102045.25;;;9.04;100.00
70407;BME280;57821;52.202;0.154;2023-02-23T14:08:59;102056.56;;;9.10;100.00
70407;BME280;57821;52.202;0.154;2023-02-23T14:14:11;102038.47;;;9.10;100.00
70407;BME280;57821;52.202;0.154;2023-02-23T14:16:39;102053.38;;;9.20;100.00
70407;BME280;57821;52.202;0.154;2023-02-23T14:19:09;102049.13;;;9.23;100.00
70407;BME280;57821;52.202;0.154;2023-02-23T14:21:47;102047.47;;;9.27;100.00
70407;BME280;57821;52.202;0.154;2023-02-23T14:24:23;102038.88;;;9.28;100.00
70407;BME280;57821;52.202;0.154;2023-02-23T14:29:36;102063.41;;;9.45;100.00
70407;BME280;57821;52.202;0.154;2023-02-23T14:34:53;102054.63;;;9.37;100.00
70407;BME280;57821;52.202;0.154;2023-02-23T14:37:39;102056.28;;;9.35;100.00
70407;BME280;57821;52.202;0.154;2023-02-23T14:40:20;102068.16;;;9.27;100.00
70407;BME280;57821;52.202;0.154;2023-02-23T14:42:50;102060.91;;;9.11;100.00
70407;BME280;57821;52.202;0.154;2023-02-23T14:45:36;102063.34;;;9.04;100.00
70407;BME280;57821;52.202;0.154;2023-02-23T14:48:10;102069.16;;;8.94;100.00
70407;BME280;57821;52.202;0.154;2023-02-23T14:50:38;102064.53;;;8.81;100.00
70407;BME280;57821;52.202;0.154;2023-02-23T14:53:06;102059.00;;;8.66;100.00
70407;BME280;57821;52.202;0.154;2023-02-23T14:55:40;102059.59;;;8.56;100.00
70407;BME280;57821;52.202;0.154;2023-02-23T14:58:25;102051.50;;;8.42;100.00